Flight Briefing for CPX404

Departure Arrival
Nashville International Airport (KBNA)
Click to view FAA NOTAMS
Louis Armstrong New Orleans International Airport (KMSY)
Click to view FAA NOTAMS
Departure Time Arrival Time
N/A N/A
Aircraft Distance
B757-200SF 410nm
Departure METAR Arrival METAR
KBNA 151953Z 02011KT 7SM -RA OVC020 07/03 A2987 RMK AO2 SLP115 P0000 T00720028 KMSY 151953Z 18006KT 9SM FEW008 SCT016 OVC024 20/19 A2984 RMK AO2 RAE39 SLP107 P0001 T02000194
Suggested Route
LBY MEI IGB HRTUN CHSNE2


View recent IFR Routes data
Notes



Charts and Procedures

Charts for KBNA
No chart available
Charts for KMSY
No chart available

Ventusky Weather